Time;durP1;ratioP1;P1;durP2;ratioP2;P2;SDS_P1;SDS_P2;PMS_P1;PMS_P2;Temp;Humidity;BMP_temperature;BMP_pressure;BME280_temperature;BME280_humidity;BME280_pressure;Samples;Min_cycle;Max_cycle;Signal;HPM_P1;HPM_P2
2022/04/26 03:38:23;;;;;;;13.00;8.97;;;3.10;84.90;;;;;;4816456;29;20218;-83
2022/04/26 03:40:48;;;;;;;17.73;10.80;;;3.00;84.60;;;;;;4824558;29;20180;-83
2022/04/26 03:43:14;;;;;;;11.20;9.47;;;3.00;84.70;;;;;;4808065;29;20180;-83
2022/04/26 03:45:39;;;;;;;14.00;9.87;;;3.00;84.80;;;;;;4808192;29;20176;-83
2022/04/26 03:48:05;;;;;;;14.30;10.23;;;3.00;84.80;;;;;;4808035;29;20209;-83
2022/04/26 03:50:31;;;;;;;15.27;9.97;;;3.00;84.70;;;;;;4808167;29;20274;-83
2022/04/26 03:52:56;;;;;;;16.00;10.17;;;3.00;84.60;;;;;;4824761;29;20270;-83
2022/04/26 03:55:24;;;;;;;11.90;10.10;;;3.00;84.50;;;;;;4824347;29;20176;-83
2022/04/26 03:57:49;;;;;;;13.17;10.07;;;2.90;85.00;;;;;;4824544;29;20203;-82
2022/04/26 04:00:15;;;;;;;12.13;9.30;;;2.80;85.40;;;;;;4824353;29;20263;-82
2022/04/26 04:02:41;;;;;;;13.73;10.00;;;2.90;85.70;;;;;;4807924;29;20180;-82
2022/04/26 04:05:07;;;;;;;11.10;9.50;;;2.90;85.60;;;;;;4807920;29;20187;-84
2022/04/26 04:07:32;;;;;;;9.83;8.83;;;3.00;85.50;;;;;;4824151;29;20264;-83
2022/04/26 04:09:58;;;;;;;9.47;8.47;;;3.00;85.10;;;;;;4807831;29;20181;-83
2022/04/26 04:12:23;;;;;;;10.03;8.33;;;3.00;84.90;;;;;;4807898;29;20212;-83
2022/04/26 04:14:49;;;;;;;14.07;9.70;;;3.20;84.70;;;;;;4824206;29;20568;-83
2022/04/26 04:17:14;;;;;;;13.20;8.60;;;3.30;84.30;;;;;;4823822;29;20222;-83
2022/04/26 04:19:40;;;;;;;10.63;8.77;;;3.30;84.10;;;;;;4824088;29;20200;-83
2022/04/26 04:22:05;;;;;;;11.03;8.60;;;3.30;83.80;;;;;;4824212;29;20184;-83
2022/04/26 04:24:32;;;;;;;11.30;8.43;;;3.40;83.50;;;;;;4824614;29;20177;-83
2022/04/26 04:26:57;;;;;;;14.40;8.43;;;3.50;83.10;;;;;;4824179;29;20188;-83
2022/04/26 04:29:23;;;;;;;9.37;8.37;;;3.60;82.70;;;;;;4823907;29;20196;-83
2022/04/26 04:31:49;;;;;;;13.30;8.40;;;3.70;82.40;;;;;;4824112;29;20262;-83
2022/04/26 04:34:15;;;;;;;14.27;9.77;;;3.70;82.30;;;;;;4807797;29;20560;-83
2022/04/26 04:36:40;;;;;;;11.47;9.43;;;3.80;82.40;;;;;;4823974;29;20188;-84
2022/04/26 04:39:06;;;;;;;15.23;10.23;;;3.90;83.00;;;;;;4823771;29;20216;-84
2022/04/26 04:41:36;;;;;;;17.80;11.37;;;3.80;83.10;;;;;;4807829;29;20223;-83
2022/04/26 04:44:03;;;;;;;18.50;10.97;;;3.80;83.70;;;;;;4823888;29;20272;-83
2022/04/26 04:46:28;;;;;;;19.60;9.97;;;3.80;84.30;;;;;;4824109;29;20216;-83
2022/04/26 04:48:54;;;;;;;17.40;11.00;;;3.90;84.70;;;;;;4808229;29;20760;-83
2022/04/26 04:51:19;;;;;;;15.93;12.10;;;4.20;85.20;;;;;;4827248;29;20187;-83
2022/04/26 04:53:45;;;;;;;15.30;10.80;;;4.30;85.20;;;;;;4827085;29;20279;-83
2022/04/26 04:56:10;;;;;;;17.90;11.53;;;4.40;85.40;;;;;;4826819;29;20266;-83
2022/04/26 04:58:36;;;;;;;19.90;12.40;;;4.50;85.90;;;;;;4811057;29;20221;-83
2022/04/26 05:01:02;;;;;;;18.63;12.00;;;4.60;86.30;;;;;;4810924;29;20188;-84
2022/04/26 05:03:28;;;;;;;17.23;12.30;;;4.70;86.60;;;;;;4810579;29;20171;-84
2022/04/26 05:05:53;;;;;;;15.17;12.27;;;4.80;86.80;;;;;;4826719;29;20597;-83
2022/04/26 05:08:19;;;;;;;24.20;12.80;;;4.90;87.10;;;;;;4810433;29;20209;-83
2022/04/26 05:10:44;;;;;;;15.37;12.03;;;5.00;87.40;;;;;;4810562;29;20224;-83
2022/04/26 05:13:10;;;;;;;20.23;12.43;;;5.00;87.60;;;;;;4826578;29;20193;-83
2022/04/26 05:15:38;;;;;;;17.33;12.63;;;5.20;87.80;;;;;;4810449;29;20643;-83
2022/04/26 05:18:04;;;;;;;20.10;12.77;;;5.20;87.80;;;;;;4826416;29;20212;-83
2022/04/26 05:20:30;;;;;;;17.33;13.30;;;5.30;87.80;;;;;;4826750;29;20198;-83
2022/04/26 05:25:40;;;;;;;19.97;14.70;;;5.40;88.00;;;;;;4826773;29;20172;-84
2022/04/26 05:28:06;;;;;;;22.60;14.87;;;5.50;88.20;;;;;;4826252;29;20194;-83
2022/04/26 05:30:31;;;;;;;16.00;13.53;;;5.70;88.20;;;;;;4810152;29;20185;-84
2022/04/26 05:32:57;;;;;;;21.30;13.70;;;5.80;88.20;;;;;;4826241;29;20185;-84
2022/04/26 05:35:23;;;;;;;20.93;12.63;;;5.90;88.10;;;;;;4809874;29;20196;-84
2022/04/26 05:37:49;;;;;;;21.07;12.93;;;6.00;87.40;;;;;;4810123;29;20212;-84
2022/04/26 05:40:14;;;;;;;18.90;11.87;;;6.10;86.90;;;;;;4826112;29;20220;-84
2022/04/26 05:42:40;;;;;;;18.53;11.17;;;6.20;86.70;;;;;;4809776;29;20190;-84
2022/04/26 05:45:06;;;;;;;14.93;12.20;;;6.30;86.40;;;;;;4826380;29;20182;-84
2022/04/26 05:47:32;;;;;;;15.87;10.07;;;6.30;86.00;;;;;;4809768;29;20694;-84
2022/04/26 05:49:57;;;;;;;14.83;10.87;;;6.40;85.20;;;;;;4826095;29;20239;-84
2022/04/26 05:52:24;;;;;;;14.57;10.80;;;6.50;85.30;;;;;;4826051;29;20194;-83
2022/04/26 05:54:52;;;;;;;15.73;11.97;;;6.50;85.00;;;;;;4809643;29;20188;-84
2022/04/26 05:57:18;;;;;;;20.27;12.17;;;6.60;85.00;;;;;;4809387;29;20267;-84
2022/04/26 05:59:44;;;;;;;15.47;12.43;;;6.70;84.90;;;;;;4825844;29;20211;-84
2022/04/26 06:02:10;;;;;;;14.30;11.10;;;6.90;85.00;;;;;;4809579;29;20246;-84
2022/04/26 06:04:37;;;;;;;13.93;10.40;;;7.00;84.60;;;;;;4826108;29;20655;-84
2022/04/26 06:07:03;;;;;;;14.80;10.57;;;7.10;83.60;;;;;;4809311;29;20204;-84
2022/04/26 06:09:28;;;;;;;15.13;11.23;;;7.30;83.60;;;;;;4825956;29;20664;-84
2022/04/26 06:11:54;;;;;;;15.27;10.90;;;7.30;82.80;;;;;;4825684;29;20188;-84
2022/04/26 06:14:21;;;;;;;14.10;10.07;;;7.40;82.50;;;;;;4825659;29;20176;-84
2022/04/26 06:16:47;;;;;;;13.23;10.67;;;7.50;82.50;;;;;;4825850;29;20183;-82
2022/04/26 06:19:12;;;;;;;11.77;10.30;;;7.70;82.40;;;;;;4826102;29;20219;-85
2022/04/26 06:21:38;;;;;;;12.67;9.97;;;7.70;82.00;;;;;;4809166;29;20180;-84
2022/04/26 06:24:04;;;;;;;15.63;10.37;;;7.90;82.00;;;;;;4825587;29;20172;-84
2022/04/26 06:26:29;;;;;;;13.07;9.50;;;8.00;81.00;;;;;;4809069;29;20183;-84
2022/04/26 06:28:55;;;;;;;14.17;9.97;;;8.10;80.30;;;;;;4809209;29;20698;-84
2022/04/26 06:31:20;;;;;;;15.60;10.63;;;8.30;80.30;;;;;;4825393;29;20184;-84
2022/04/26 06:33:46;;;;;;;16.83;10.23;;;8.30;79.90;;;;;;4809345;29;20602;-84
2022/04/26 06:36:11;;;;;;;12.23;9.23;;;8.60;79.60;;;;;;4825215;29;20190;-83
2022/04/26 06:38:37;;;;;;;16.30;10.50;;;8.50;78.20;;;;;;4825323;29;20204;-84
2022/04/26 06:41:03;;;;;;;13.80;9.63;;;8.70;78.60;;;;;;4825603;29;20188;-84
2022/04/26 06:43:32;;;;;;;12.63;9.93;;;8.70;77.40;;;;;;4808936;29;20176;-84
2022/04/26 06:45:58;;;;;;;11.83;9.10;;;8.80;76.70;;;;;;4825319;29;20179;-83
2022/04/26 06:48:23;;;;;;;16.17;9.37;;;9.00;75.80;;;;;;4825196;29;20196;-84
2022/04/26 06:50:49;;;;;;;12.43;9.03;;;9.00;75.40;;;;;;4825390;29;20181;-83
2022/04/26 06:53:15;;;;;;;10.03;8.97;;;9.10;75.90;;;;;;4808883;29;20267;-83
2022/04/26 06:55:41;;;;;;;16.63;9.43;;;9.20;76.30;;;;;;4808690;29;20263;-84
2022/04/26 06:58:06;;;;;;;14.33;9.70;;;9.30;74.70;;;;;;4808711;29;20536;-84
2022/04/26 07:00:32;;;;;;;11.03;8.13;;;9.40;74.00;;;;;;4824897;29;20202;-84
2022/04/26 07:02:58;;;;;;;12.97;9.10;;;9.40;74.50;;;;;;4825002;29;20250;-84
2022/04/26 07:05:24;;;;;;;10.73;8.87;;;9.60;74.60;;;;;;4824842;29;20203;-84
2022/04/26 07:07:51;;;;;;;13.83;8.67;;;9.70;73.30;;;;;;4808352;29;20691;-84
2022/04/26 07:10:16;;;;;;;13.10;8.77;;;9.80;72.50;;;;;;4825192;29;20172;-84
2022/04/26 07:12:42;;;;;;;13.17;7.93;;;9.90;71.90;;;;;;4824379;29;20263;-84
2022/04/26 07:15:07;;;;;;;12.87;8.40;;;10.00;70.60;;;;;;4808270;29;20240;-84
2022/04/26 07:17:33;;;;;;;13.90;8.80;;;10.10;70.10;;;;;;4808119;29;20330;-83
2022/04/26 07:19:59;;;;;;;14.03;8.67;;;10.20;71.10;;;;;;4825047;29;20691;-83
2022/04/26 07:22:29;;;;;;;11.63;8.93;;;10.40;71.50;;;;;;4808644;29;20244;-84
2022/04/26 07:24:56;;;;;;;12.97;8.27;;;10.40;69.60;;;;;;4808685;29;20627;-83
2022/04/26 07:27:22;;;;;;;13.90;8.73;;;10.60;70.90;;;;;;4808657;29;20645;-84
2022/04/26 07:29:52;;;;;;;9.50;7.97;;;10.70;69.60;;;;;;4809374;29;20553;-84
2022/04/26 07:32:18;;;;;;;11.33;9.07;;;10.80;68.10;;;;;;4808866;29;20211;-84
2022/04/26 07:34:45;;;;;;;11.43;7.80;;;11.00;68.70;;;;;;4808493;29;20664;-84
2022/04/26 07:37:11;;;;;;;9.40;7.67;;;11.00;65.70;;;;;;4824978;29;20184;-84
2022/04/26 07:39:37;;;;;;;10.73;8.00;;;11.00;66.40;;;;;;4808178;29;20211;-84
2022/04/26 07:42:04;;;;;;;11.63;7.00;;;10.80;64.00;;;;;;4808318;29;20180;-84
2022/04/26 07:44:31;;;;;;;8.93;6.97;;;10.80;65.70;;;;;;4824896;29;20274;-84
2022/04/26 07:46:57;;;;;;;16.53;8.30;;;11.00;66.30;;;;;;4824369;29;20633;-84
2022/04/26 07:49:24;;;;;;;11.63;8.50;;;11.20;64.90;;;;;;4824443;29;20263;-84
2022/04/26 07:51:51;;;;;;;8.77;7.87;;;11.30;63.40;;;;;;4808066;29;20192;-84
2022/04/26 07:54:17;;;;;;;8.77;7.30;;;11.20;63.60;;;;;;4808118;29;20195;-84
2022/04/26 07:56:43;;;;;;;12.03;7.80;;;11.20;63.20;;;;;;4793233;29;20274;-84
2022/04/26 07:59:09;;;;;;;12.23;8.03;;;11.20;63.20;;;;;;4824255;29;20691;-84
2022/04/26 08:01:35;;;;;;;12.60;7.70;;;11.20;64.70;;;;;;4807896;29;20195;-84
2022/04/26 08:04:01;;;;;;;11.80;8.47;;;11.20;64.20;;;;;;4807897;29;20241;-84
2022/04/26 08:06:27;;;;;;;12.43;7.67;;;11.20;64.60;;;;;;4807741;29;20270;-84
2022/04/26 08:08:54;;;;;;;9.57;7.53;;;11.20;63.60;;;;;;4807634;29;20212;-85
2022/04/26 08:11:20;;;;;;;13.07;8.17;;;11.40;63.50;;;;;;4807913;29;20219;-84
2022/04/26 08:13:46;;;;;;;8.97;7.47;;;11.50;63.40;;;;;;4807929;29;20719;-84
2022/04/26 08:16:12;;;;;;;8.97;6.97;;;11.50;62.20;;;;;;4824484;29;20188;-84
2022/04/26 08:18:38;;;;;;;10.57;7.90;;;11.50;62.50;;;;;;4807502;29;20288;-85
2022/04/26 08:21:07;;;;;;;9.60;7.83;;;11.50;62.70;;;;;;4824319;29;20180;-85
2022/04/26 08:23:34;;;;;;;9.17;7.77;;;11.60;62.80;;;;;;4808133;29;20192;-85
2022/04/26 08:28:45;;;;;;;10.40;6.93;;;11.70;62.90;;;;;;4827571;29;20292;-84
2022/04/26 08:31:11;;;;;;;10.13;7.80;;;11.60;62.00;;;;;;4827292;29;20781;-84
2022/04/26 08:33:37;;;;;;;10.90;6.73;;;11.70;60.50;;;;;;4810839;29;20279;-84
2022/04/26 08:36:03;;;;;;;7.63;6.10;;;11.80;59.30;;;;;;4827319;29;20260;-84
2022/04/26 08:38:28;;;;;;;7.20;6.50;;;12.00;59.10;;;;;;4826944;29;20266;-84
2022/04/26 08:40:54;;;;;;;12.67;7.77;;;12.10;59.20;;;;;;4826943;29;20176;-85
2022/04/26 08:43:20;;;;;;;8.47;6.30;;;12.30;58.80;;;;;;4810755;29;20191;-85
2022/04/26 08:45:46;;;;;;;7.07;6.30;;;12.30;58.40;;;;;;4827174;29;20263;-85
2022/04/26 08:51:00;;;;;;;7.93;6.37;;;12.50;57.90;;;;;;4827339;29;20168;-85
2022/04/26 08:53:28;;;;;;;8.10;6.93;;;12.70;57.00;;;;;;4810549;29;20188;-85
2022/04/26 08:55:55;;;;;;;9.13;7.47;;;12.50;56.60;;;;;;4826817;29;20181;-85
2022/04/26 08:58:25;;;;;;;9.27;6.27;;;12.70;57.90;;;;;;4826869;29;20282;-85
2022/04/26 09:01:13;;;;;;;6.47;5.67;;;12.80;56.30;;;;;;4826970;29;20194;-85
2022/04/26 09:03:57;;;;;;;9.03;5.87;;;12.80;53.80;;;;;;4826873;29;20168;-85
2022/04/26 09:06:45;;;;;;;9.07;6.70;;;12.70;54.70;;;;;;4810339;29;20176;-85
2022/04/26 09:09:18;;;;;;;6.57;5.70;;;12.90;58.40;;;;;;4810181;29;20260;-85
2022/04/26 09:11:45;;;;;;;7.27;6.37;;;13.20;53.50;;;;;;4810252;29;20180;-85
2022/04/26 09:14:32;;;;;;;7.07;6.37;;;13.20;55.30;;;;;;4810290;29;20188;-85
2022/04/26 09:17:09;;;;;;;8.57;6.50;;;13.30;55.50;;;;;;4809982;29;20184;-85
2022/04/26 09:19:46;;;;;;;9.23;7.03;;;13.40;53.70;;;;;;4826321;29;20278;-85
2022/04/26 09:22:20;;;;;;;14.83;6.20;;;13.40;52.10;;;;;;4810070;29;20176;-85
2022/04/26 09:25:03;;;;;;;9.47;6.13;;;13.30;54.30;;;;;;4809931;29;20184;-85
2022/04/26 09:27:29;;;;;;;13.67;6.43;;;13.20;51.90;;;;;;4809879;29;20254;-85
2022/04/26 09:29:55;;;;;;;9.07;6.33;;;13.20;55.50;;;;;;4809939;29;20188;-85
2022/04/26 09:32:23;;;;;;;11.90;6.23;;;13.30;54.90;;;;;;4809860;29;20655;-85
2022/04/26 09:34:49;;;;;;;11.70;6.97;;;13.30;53.90;;;;;;4809421;29;20188;-85
2022/04/26 09:37:16;;;;;;;12.13;6.37;;;13.50;53.90;;;;;;4825980;29;20763;-85
2022/04/26 09:40:00;;;;;;;9.87;6.67;;;13.50;53.00;;;;;;4825983;29;20227;-85
2022/04/26 09:42:30;;;;;;;7.67;5.97;;;13.50;52.00;;;;;;4826547;29;20164;-84
2022/04/26 09:45:06;;;;;;;9.27;6.37;;;13.40;51.70;;;;;;4825953;29;20180;-84
2022/04/26 09:47:37;;;;;;;8.03;5.30;;;13.60;54.20;;;;;;4825771;29;20695;-84
2022/04/26 09:50:11;;;;;;;10.37;5.07;;;13.70;50.90;;;;;;4825839;29;20176;-84
2022/04/26 09:52:37;;;;;;;6.50;5.63;;;14.00;50.60;;;;;;4825763;29;20191;-84
2022/04/26 09:55:05;;;;;;;9.47;5.20;;;14.00;50.70;;;;;;4825762;29;20181;-85
2022/04/26 09:57:35;;;;;;;7.23;5.57;;;14.00;49.50;;;;;;4825993;29;20204;-85
2022/04/26 10:00:04;;;;;;;5.33;4.70;;;14.00;49.50;;;;;;4826054;29;20250;-85
2022/04/26 10:02:35;;;;;;;8.27;5.73;;;14.30;50.90;;;;;;4809132;29;20211;-85
2022/04/26 10:05:05;;;;;;;5.37;4.50;;;14.50;48.10;;;;;;4809322;29;20184;-86
2022/04/26 10:07:35;;;;;;;5.73;4.93;;;14.80;50.20;;;;;;4809609;29;20199;-84
2022/04/26 10:10:03;;;;;;;9.10;5.27;;;15.10;48.50;;;;;;4825928;29;20192;-85
2022/04/26 10:12:30;;;;;;;6.50;5.00;;;15.20;47.60;;;;;;4809111;29;20284;-85
2022/04/26 10:14:56;;;;;;;10.17;5.70;;;15.30;45.30;;;;;;4809074;29;20604;-85
2022/04/26 10:17:21;;;;;;;7.97;5.97;;;15.30;46.80;;;;;;4808956;29;20267;-84
2022/04/26 10:19:47;;;;;;;7.57;5.70;;;15.40;49.20;;;;;;4825468;29;20248;-84
2022/04/26 10:22:17;;;;;;;7.78;5.32;;;15.30;47.60;;;;;;4825342;29;20645;-84
2022/04/26 10:25:12;;;;;;;6.07;5.45;;;15.30;49.40;;;;;;4825342;29;20178;-84
2022/04/26 10:27:37;;;;;;;7.10;5.50;;;15.40;48.10;;;;;;4821153;29;20726;-84
2022/04/26 10:30:04;;;;;;;9.07;5.82;;;15.30;45.60;;;;;;4808806;29;20184;-85
2022/04/26 10:32:31;;;;;;;7.07;5.87;;;15.30;47.70;;;;;;4825206;29;20183;-86
2022/04/26 10:35:25;;;;;;;8.20;5.90;;;15.50;48.30;;;;;;4808825;29;20184;-85
2022/04/26 10:38:12;;;;;;;7.63;5.53;;;15.30;46.00;;;;;;4808599;29;20295;-85
2022/04/26 10:41:07;;;;;;;7.72;6.32;;;15.70;49.40;;;;;;4825467;29;20539;-87
2022/04/26 10:43:33;;;;;;;12.32;7.80;;;16.20;47.80;;;;;;4809633;29;20180;-87
2022/04/26 10:46:13;;;;;;;9.90;5.88;;;15.70;46.70;;;;;;4825100;29;20261;-87
2022/04/26 10:48:38;;;;;;;6.85;5.97;;;16.10;49.60;;;;;;4808551;29;20720;-87
2022/04/26 10:51:35;;;;;;;8.57;6.10;;;15.70;48.20;;;;;;4808713;29;20256;-87
2022/04/26 10:54:05;;;;;;;9.27;5.70;;;16.10;46.90;;;;;;4808628;29;20200;-88
2022/04/26 10:56:35;;;;;;;9.25;6.00;;;16.50;46.80;;;;;;4825027;29;20176;-88
2022/04/26 10:59:00;;;;;;;8.27;6.43;;;16.80;46.30;;;;;;4824786;29;20200;-88
2022/04/26 11:01:29;;;;;;;13.68;6.68;;;17.00;43.30;;;;;;4824965;29;20176;-88
2022/04/26 11:03:56;;;;;;;7.68;6.07;;;17.10;43.30;;;;;;4808487;29;20191;-88
2022/04/26 11:06:33;;;;;;;8.32;6.65;;;17.10;43.80;;;;;;4808391;29;20180;-87
2022/04/26 11:09:08;;;;;;;9.02;6.43;;;16.90;42.10;;;;;;4824670;29;20637;-86
2022/04/26 11:11:50;;;;;;;7.03;6.03;;;16.90;43.70;;;;;;4808366;29;20219;-87
2022/04/26 11:14:17;;;;;;;8.88;6.15;;;16.80;42.30;;;;;;4824837;29;20188;-88
2022/04/26 11:17:04;;;;;;;7.20;6.18;;;17.00;45.20;;;;;;4808390;29;20196;-89
2022/04/26 11:19:36;;;;;;;7.97;6.18;;;17.10;43.00;;;;;;4808322;29;20207;-88
2022/04/26 11:22:06;;;;;;;7.43;6.35;;;16.80;42.30;;;;;;4808215;29;20172;-87
2022/04/26 11:30:02;;;;;;;7.50;5.95;;;17.00;44.60;;;;;;4824557;29;20175;-86
2022/04/26 11:32:32;;;;;;;7.90;5.70;;;17.10;41.90;;;;;;4808280;29;20241;-88
2022/04/26 11:34:59;;;;;;;7.18;6.18;;;17.60;44.30;;;;;;4808957;29;20237;-88
2022/04/26 11:37:24;;;;;;;9.15;6.13;;;17.60;41.40;;;;;;4808074;29;20218;-89
2022/04/26 11:39:50;;;;;;;12.27;5.78;;;17.40;40.30;;;;;;4808077;29;20207;-88
2022/04/26 11:42:16;;;;;;;7.97;6.05;;;17.20;39.50;;;;;;4808605;29;20180;-88
2022/04/26 11:45:03;;;;;;;6.28;5.68;;;17.00;45.40;;;;;;4824522;29;20183;-88
2022/04/26 11:47:49;;;;;;;9.40;6.05;;;16.80;42.50;;;;;;4824364;29;20252;-88
2022/04/26 11:50:17;;;;;;;11.70;6.03;;;17.00;42.00;;;;;;4824483;29;20175;-89
2022/04/26 11:52:43;;;;;;;11.93;5.93;;;17.80;44.20;;;;;;4808027;29;20275;-89
2022/04/26 11:55:30;;;;;;;10.50;5.65;;;18.30;41.40;;;;;;4824352;29;20180;-89
2022/04/26 11:58:08;;;;;;;9.25;5.50;;;18.70;42.30;;;;;;4808865;29;20237;-89
2022/04/26 12:00:35;;;;;;;6.38;5.40;;;18.70;41.50;;;;;;4827851;29;20206;-89
2022/04/26 12:03:03;;;;;;;8.20;5.80;;;19.10;41.40;;;;;;4811578;29;20180;-89
2022/04/26 12:05:32;;;;;;;14.85;6.50;;;18.80;41.80;;;;;;4811575;29;20176;-88
2022/04/26 12:07:58;;;;;;;7.80;6.90;;;18.60;42.70;;;;;;4827801;29;20233;-89
2022/04/26 12:10:28;;;;;;;9.32;6.10;;;18.80;42.40;;;;;;4811499;29;20184;-89
2022/04/26 12:12:55;;;;;;;9.45;6.07;;;19.10;42.40;;;;;;4827680;29;20651;-89
2022/04/26 12:15:43;;;;;;;6.20;5.60;;;18.80;41.90;;;;;;4811422;29;20191;-89
2022/04/26 12:18:14;;;;;;;6.90;6.28;;;18.80;40.10;;;;;;4811320;29;20216;-89
2022/04/26 12:20:59;;;;;;;7.88;6.18;;;18.80;40.90;;;;;;4811443;29;20305;-89
2022/04/26 12:23:26;;;;;;;8.25;6.55;;;18.40;43.50;;;;;;4827802;29;20206;-89
2022/04/26 12:25:54;;;;;;;14.45;6.68;;;18.70;39.30;;;;;;4827448;29;20237;-89
2022/04/26 12:28:19;;;;;;;9.38;6.68;;;18.80;38.40;;;;;;4827371;29;20657;-89
2022/04/26 12:30:45;;;;;;;7.18;6.47;;;19.00;38.70;;;;;;4811093;29;20304;-89
2022/04/26 12:33:10;;;;;;;8.32;6.43;;;18.70;41.30;;;;;;4811172;29;20196;-89
2022/04/26 12:35:36;;;;;;;10.88;6.40;;;18.80;37.40;;;;;;4811930;29;20184;-89
2022/04/26 12:38:05;;;;;;;7.60;6.85;;;18.80;40.50;;;;;;4827252;29;20219;-89
2022/04/26 12:40:31;;;;;;;9.10;6.50;;;18.90;36.90;;;;;;4810829;29;20212;-89
2022/04/26 12:42:57;;;;;;;7.15;6.45;;;19.00;39.80;;;;;;4810913;29;20271;-89
2022/04/26 12:45:23;;;;;;;6.82;6.10;;;19.00;38.30;;;;;;4827111;29;20183;-89
2022/04/26 12:50:53;;;;;;;11.50;5.43;;;19.00;39.90;;;;;;4827577;29;20684;-89
2022/04/26 12:53:28;;;;;;;7.28;5.47;;;19.50;38.00;;;;;;4827260;29;20203;-89
2022/04/26 12:56:04;;;;;;;6.95;5.07;;;19.00;36.40;;;;;;4827141;29;20160;-89
2022/04/26 12:58:36;;;;;;;5.93;4.57;;;18.80;36.40;;;;;;4810626;29;20207;-88
2022/04/26 13:01:02;;;;;;;10.25;5.18;;;19.30;38.10;;;;;;4826856;29;20192;-89
2022/04/26 13:03:28;;;;;;;8.38;5.15;;;19.20;36.10;;;;;;4827085;29;20184;-88
2022/04/26 13:06:07;;;;;;;6.00;5.05;;;18.90;37.80;;;;;;4826768;29;20553;-89
2022/04/26 13:08:33;;;;;;;7.60;5.43;;;18.90;36.00;;;;;;4810572;29;20204;-89
2022/04/26 13:11:00;;;;;;;9.45;4.90;;;18.80;36.40;;;;;;4809654;29;20192;-89
2022/04/26 13:13:27;;;;;;;6.50;5.22;;;18.90;38.00;;;;;;4810396;29;20191;-89
2022/04/26 13:15:53;;;;;;;7.47;5.20;;;19.80;37.10;;;;;;4810328;29;20555;-89
2022/04/26 13:18:19;;;;;;;6.28;5.03;;;19.20;35.40;;;;;;4810178;29;20230;-89
2022/04/26 13:20:45;;;;;;;8.18;4.78;;;18.70;35.30;;;;;;4810209;29;20216;-88
2022/04/26 13:23:12;;;;;;;6.38;5.38;;;18.80;38.30;;;;;;4810192;29;20635;-89
2022/04/26 13:25:38;;;;;;;7.20;4.95;;;18.60;35.00;;;;;;4826507;29;20191;-89
2022/04/26 13:28:05;;;;;;;5.47;4.90;;;19.10;37.70;;;;;;4826457;29;20196;-89
2022/04/26 13:30:30;;;;;;;7.30;5.32;;;19.50;37.50;;;;;;4810055;29;20184;-89
2022/04/26 13:32:56;;;;;;;9.40;5.40;;;19.80;35.00;;;;;;4826596;29;20184;-89
2022/04/26 13:35:22;;;;;;;6.18;5.15;;;19.10;37.60;;;;;;4811084;29;20275;-89
2022/04/26 13:37:47;;;;;;;6.97;5.13;;;19.20;37.20;;;;;;4826164;29;20211;-89
2022/04/26 13:40:13;;;;;;;6.03;5.43;;;19.60;36.10;;;;;;4826086;29;20212;-89
2022/04/26 13:42:39;;;;;;;11.00;4.72;;;19.00;35.40;;;;;;4826194;29;20177;-89
2022/04/26 13:45:06;;;;;;;6.05;5.32;;;19.20;38.40;;;;;;4809910;29;20188;-89
2022/04/26 13:47:34;;;;;;;7.65;4.72;;;19.20;38.30;;;;;;4809840;29;20586;-89
2022/04/26 13:50:00;;;;;;;7.13;5.85;;;19.10;37.70;;;;;;4809796;29;20187;-89
2022/04/26 13:52:25;;;;;;;8.98;5.28;;;19.00;38.60;;;;;;4809884;29;20192;-88
2022/04/26 13:54:51;;;;;;;7.13;6.20;;;19.30;38.30;;;;;;4809819;29;20726;-89
2022/04/26 13:57:17;;;;;;;10.57;5.63;;;19.60;34.80;;;;;;4825926;29;20207;-89
2022/04/26 13:59:44;;;;;;;8.48;5.68;;;19.70;37.30;;;;;;4809650;29;20208;-89
2022/04/26 14:02:11;;;;;;;7.13;5.20;;;18.90;39.50;;;;;;4825953;29;20184;-88
2022/04/26 14:04:37;;;;;;;8.43;5.95;;;19.30;38.90;;;;;;4825888;29;20180;-89
2022/04/26 14:07:03;;;;;;;8.80;5.88;;;19.30;36.90;;;;;;4825719;29;20667;-88
2022/04/26 14:09:29;;;;;;;6.75;6.05;;;19.70;36.40;;;;;;4809588;29;20200;-89
2022/04/26 14:11:55;;;;;;;8.57;5.82;;;19.20;38.20;;;;;;4825910;29;20188;-89
2022/04/26 14:22:34;;;;;;;7.88;5.07;;;19.70;39.50;;;;;;4824966;29;20539;-88
2022/04/26 14:25:11;;;;;;;6.40;4.90;;;20.10;38.90;;;;;;4809208;29;20177;-89
2022/04/26 14:27:38;;;;;;;7.93;5.82;;;19.50;39.80;;;;;;4809052;29;20200;-88
2022/04/26 14:30:06;;;;;;;6.35;4.70;;;19.40;41.00;;;;;;4809677;29;20195;-88
2022/04/26 14:32:32;;;;;;;5.13;4.60;;;19.70;38.90;;;;;;4825512;29;20190;-88
2022/04/26 14:34:57;;;;;;;7.30;4.68;;;19.50;39.30;;;;;;4809275;29;20184;-88
2022/04/26 14:37:24;;;;;;;6.05;4.70;;;19.40;39.60;;;;;;4825294;29;20215;-88
2022/04/26 14:39:50;;;;;;;5.80;4.15;;;19.20;40.10;;;;;;4808874;29;20253;-88
2022/04/26 14:42:17;;;;;;;5.78;4.18;;;19.00;41.10;;;;;;4808939;29;20180;-88
2022/04/26 14:44:44;;;;;;;7.03;4.45;;;19.70;39.00;;;;;;4808787;29;20639;-88
2022/04/26 14:47:11;;;;;;;8.27;4.72;;;19.80;40.80;;;;;;4808784;29;20203;-88
2022/04/26 14:49:37;;;;;;;9.63;4.43;;;19.70;39.40;;;;;;4825101;29;20176;-88
2022/04/26 14:52:03;;;;;;;10.35;4.80;;;19.80;40.50;;;;;;4808719;29;20791;-88
2022/04/26 14:54:29;;;;;;;5.40;4.50;;;19.50;40.30;;;;;;4825307;29;20207;-88
2022/04/26 14:56:55;;;;;;;9.55;4.20;;;19.30;39.50;;;;;;4808633;29;20659;-88
2022/04/26 14:59:22;;;;;;;6.82;4.80;;;19.20;40.50;;;;;;4808603;29;20208;-89
2022/04/26 15:01:49;;;;;;;8.52;4.43;;;19.10;39.70;;;;;;4808661;29;20674;-89
2022/04/26 15:04:19;;;;;;;5.25;4.13;;;19.00;40.20;;;;;;4808570;29;20183;-88
2022/04/26 15:06:45;;;;;;;5.95;4.40;;;18.80;40.90;;;;;;4808480;29;20184;-88
2022/04/26 15:17:25;;;;;;;7.57;4.43;;;18.40;42.10;;;;;;4825186;29;20356;-88
2022/04/26 15:19:51;;;;;;;5.45;4.40;;;18.00;40.90;;;;;;4808406;29;20692;-88
2022/04/26 15:22:18;;;;;;;7.65;4.40;;;17.60;41.70;;;;;;4808368;29;20184;-88
2022/04/26 15:24:47;;;;;;;7.07;4.05;;;17.70;42.50;;;;;;4808328;29;20563;-88
2022/04/26 15:27:15;;;;;;;12.95;4.68;;;17.60;44.20;;;;;;4824534;29;20232;-88
2022/04/26 15:29:40;;;;;;;11.48;5.57;;;17.80;45.50;;;;;;4808170;29;20184;-88
2022/04/26 15:32:07;;;;;;;8.85;4.93;;;17.80;43.00;;;;;;4808022;29;20651;-88
2022/04/26 15:34:32;;;;;;;8.45;4.53;;;18.00;44.10;;;;;;4824540;29;20214;-88
2022/04/26 15:36:58;;;;;;;6.53;4.47;;;17.90;42.90;;;;;;4807971;29;20215;-88
2022/04/26 15:39:25;;;;;;;6.47;4.40;;;18.10;43.10;;;;;;4808039;29;20204;-88
2022/04/26 15:41:51;;;;;;;6.47;4.40;;;17.90;43.20;;;;;;4824495;29;20178;-88
2022/04/26 15:44:17;;;;;;;9.63;4.25;;;18.00;43.40;;;;;;4807982;29;20562;-88
2022/04/26 15:46:42;;;;;;;7.88;4.95;;;18.20;44.50;;;;;;4807970;29;20180;-88
2022/04/26 15:49:08;;;;;;;5.18;3.90;;;17.90;43.80;;;;;;4807883;29;20303;-88
2022/04/26 15:51:36;;;;;;;8.35;4.13;;;18.20;44.50;;;;;;4807986;29;20608;-88
2022/04/26 15:54:02;;;;;;;6.72;4.97;;;17.90;45.00;;;;;;4807883;29;20194;-88
2022/04/26 15:56:28;;;;;;;14.77;7.78;;;17.70;46.20;;;;;;4824226;29;20293;-88
2022/04/26 15:58:54;;;;;;;9.32;5.45;;;17.70;45.10;;;;;;4824211;29;20283;-88
2022/04/26 16:01:19;;;;;;;9.15;5.47;;;17.70;44.60;;;;;;4807905;29;20558;-88
2022/04/26 16:03:45;;;;;;;9.55;4.45;;;17.40;44.40;;;;;;4807812;29;20180;-88
2022/04/26 16:06:11;;;;;;;7.20;4.95;;;17.50;45.40;;;;;;4807880;29;20182;-88
2022/04/26 16:08:37;;;;;;;8.15;4.65;;;17.00;46.20;;;;;;4807902;29;20387;-88
2022/04/26 16:22:01;;;;;;;6.72;4.05;;;16.90;45.30;;;;;;4824219;29;20234;-88
2022/04/26 16:24:26;;;;;;;5.75;4.60;;;16.80;45.40;;;;;;4824035;29;20177;-88
2022/04/26 16:26:52;;;;;;;6.18;3.92;;;16.70;45.50;;;;;;4807652;29;20241;-88
2022/04/26 16:29:18;;;;;;;8.65;3.97;;;16.60;48.00;;;;;;4823958;29;20185;-88
2022/04/26 16:31:44;;;;;;;7.60;4.88;;;16.90;47.20;;;;;;4807648;29;20188;-88
2022/04/26 16:34:09;;;;;;;7.22;4.25;;;16.70;48.20;;;;;;4807600;29;20715;-88
2022/04/26 16:36:36;;;;;;;12.55;3.85;;;16.80;48.00;;;;;;4807643;29;20187;-88
2022/04/26 16:39:03;;;;;;;6.20;4.10;;;16.60;47.70;;;;;;4823773;29;20204;-88
2022/04/26 16:41:30;;;;;;;6.43;3.83;;;16.30;49.50;;;;;;4807492;29;20669;-88
2022/04/26 16:43:55;;;;;;;7.22;3.25;;;16.30;49.50;;;;;;4807472;29;20618;-88
2022/04/26 16:46:22;;;;;;;11.02;3.88;;;16.40;49.90;;;;;;4810353;29;20272;-88
2022/04/26 16:48:48;;;;;;;12.30;3.97;;;16.50;48.50;;;;;;4826982;29;20199;-88
2022/04/26 16:51:15;;;;;;;6.75;3.33;;;16.00;48.20;;;;;;4810714;29;20184;-88
2022/04/26 16:53:42;;;;;;;4.75;3.15;;;15.80;49.70;;;;;;4810820;29;20184;-88
2022/04/26 16:56:08;;;;;;;6.72;3.00;;;15.70;49.70;;;;;;4811491;29;20219;-88
2022/04/26 16:58:34;;;;;;;7.97;3.72;;;15.60;50.30;;;;;;4826895;29;20679;-88
2022/04/26 17:00:59;;;;;;;8.25;3.47;;;15.40;50.80;;;;;;4810604;29;20212;-88
2022/04/26 17:03:25;;;;;;;7.35;3.30;;;15.30;51.00;;;;;;4810616;29;20674;-88
2022/04/26 17:05:50;;;;;;;8.43;3.75;;;15.40;51.80;;;;;;4827004;29;20251;-88
2022/04/26 17:08:17;;;;;;;9.07;3.22;;;15.40;50.30;;;;;;4810519;29;20211;-88